createdAt,value
2022-12-23T00:01:19.997Z,85.95
2022-12-23T00:03:47.846Z,96.95
2022-12-23T00:06:17.361Z,108.53
2022-12-23T00:08:45.290Z,112.93
2022-12-23T00:11:18.732Z,118.78
2022-12-23T00:14:04.897Z,112.50
2022-12-23T00:16:36.575Z,123.35
2022-12-23T00:19:04.231Z,121.78
2022-12-23T00:21:31.599Z,90.85
2022-12-23T00:23:59.430Z,71.10
2022-12-23T00:26:27.990Z,75.22
2022-12-23T00:28:58.448Z,78.82
2022-12-23T00:31:26.177Z,79.72
2022-12-23T00:33:54.478Z,80.55
2022-12-23T00:36:28.431Z,91.55
2022-12-23T00:39:16.157Z,88.22
2022-12-23T00:42:01.907Z,92.03
2022-12-23T00:44:30.137Z,102.55
2022-12-23T00:46:57.472Z,92.20
2022-12-23T00:49:42.916Z,102.20
2022-12-23T00:52:13.738Z,97.97
2022-12-23T00:54:41.143Z,116.78
2022-12-23T00:57:08.407Z,109.57
2022-12-23T00:59:36.232Z,109.57
2022-12-23T01:02:23.089Z,109.68
2022-12-23T01:05:09.556Z,93.65
2022-12-23T01:07:36.968Z,91.37
2022-12-23T01:10:08.908Z,101.07
2022-12-23T01:12:39.153Z,100.03
2022-12-23T01:15:07.474Z,89.78
2022-12-23T01:17:34.775Z,92.03
2022-12-23T01:20:02.328Z,82.67
2022-12-23T01:22:29.952Z,87.00
2022-12-23T01:24:57.217Z,91.03
2022-12-23T01:27:24.590Z,88.97
2022-12-23T01:29:52.160Z,76.82
2022-12-23T01:32:19.535Z,71.50
2022-12-23T01:34:46.937Z,63.17
2022-12-23T01:37:14.726Z,72.47
2022-12-23T01:39:42.032Z,74.87
2022-12-23T01:42:37.539Z,83.93
2022-12-23T01:45:07.024Z,92.25
2022-12-23T01:47:42.847Z,97.07
2022-12-23T01:50:35.305Z,87.37
2022-12-23T01:53:08.622Z,95.12
2022-12-23T01:55:53.159Z,88.77
2022-12-23T01:58:30.919Z,94.37
2022-12-23T02:01:18.135Z,135.65
2022-12-23T02:03:48.013Z,115.32
2022-12-23T02:06:37.805Z,81.50
2022-12-23T02:09:17.727Z,54.08
2022-12-23T02:12:03.380Z,55.08
2022-12-23T02:15:01.826Z,43.00
2022-12-23T02:17:37.920Z,43.15
2022-12-23T02:20:43.173Z,39.45
2022-12-23T02:23:47.515Z,45.28
2022-12-23T02:26:36.491Z,48.40
2022-12-23T02:29:25.709Z,56.90
2022-12-23T02:32:24.932Z,65.45
2022-12-23T02:34:56.285Z,102.65
2022-12-23T02:37:54.486Z,117.30
2022-12-23T02:41:01.404Z,110.07
2022-12-23T02:43:39.608Z,112.32
2022-12-23T02:46:25.617Z,106.70
2022-12-23T02:49:06.992Z,108.18
2022-12-23T02:51:38.588Z,99.47
2022-12-23T02:54:14.399Z,111.35
2022-12-23T02:56:47.144Z,97.85
2022-12-23T02:59:28.405Z,94.80
2022-12-23T03:01:57.563Z,92.35
2022-12-23T03:04:25.278Z,90.87
2022-12-23T03:06:55.952Z,93.00
2022-12-23T03:09:41.904Z,69.03
2022-12-23T03:12:25.134Z,78.05
2022-12-23T03:14:55.511Z,87.72
2022-12-23T03:17:35.532Z,82.65
2022-12-23T03:20:20.134Z,74.03
2022-12-23T03:22:57.407Z,52.03
2022-12-23T03:25:33.337Z,51.10
2022-12-23T03:28:05.579Z,39.72
2022-12-23T03:30:34.502Z,29.42
2022-12-23T03:33:07.156Z,24.08
2022-12-23T03:35:41.080Z,38.08
2022-12-23T03:38:13.670Z,59.10
2022-12-23T03:40:47.231Z,57.05
2022-12-23T03:43:28.966Z,49.40
2022-12-23T03:46:01.294Z,52.35
2022-12-23T03:48:37.869Z,66.78
2022-12-23T03:51:14.660Z,62.92
2022-12-23T03:53:58.068Z,68.05
2022-12-23T03:56:31.329Z,76.30
2022-12-23T03:59:07.705Z,67.80
2022-12-23T04:02:12.488Z,67.00
2022-12-23T04:05:01.630Z,70.30
2022-12-23T04:07:38.523Z,73.97
2022-12-23T04:10:09.308Z,62.40
2022-12-23T04:12:39.325Z,68.43
2022-12-23T04:15:12.832Z,87.65
2022-12-23T04:17:43.746Z,74.62
2022-12-23T04:20:11.563Z,70.82
2022-12-23T04:22:39.746Z,81.68
2022-12-23T04:25:07.406Z,73.43
2022-12-23T04:27:35.164Z,81.50
2022-12-23T04:30:02.446Z,82.80
2022-12-23T04:32:29.909Z,75.23
2022-12-23T04:34:57.794Z,68.87
2022-12-23T04:37:25.123Z,70.05
2022-12-23T04:39:52.431Z,68.90
2022-12-23T04:42:20.036Z,63.43
2022-12-23T04:44:47.303Z,75.30
2022-12-23T04:47:14.864Z,83.40
2022-12-23T04:49:42.601Z,83.97
2022-12-23T04:52:09.976Z,78.03
2022-12-23T04:54:43.873Z,66.03
2022-12-23T04:57:14.384Z,71.43
2022-12-23T04:59:41.836Z,83.30
2022-12-23T05:02:09.342Z,97.93
2022-12-23T05:04:37.234Z,90.67
2022-12-23T05:07:04.908Z,59.50
2022-12-23T05:09:32.237Z,55.47
2022-12-23T05:12:00.350Z,40.55
2022-12-23T05:14:27.664Z,37.83
2022-12-23T05:16:54.945Z,44.80
2022-12-23T05:19:22.747Z,62.20
2022-12-23T05:21:50.039Z,36.43
2022-12-23T05:24:17.316Z,35.10
2022-12-23T05:26:51.796Z,33.35
2022-12-23T05:29:23.113Z,33.37
2022-12-23T05:31:50.822Z,35.60
2022-12-23T05:34:18.212Z,68.57
2022-12-23T05:36:45.491Z,82.13
2022-12-23T05:39:13.298Z,91.97
2022-12-23T05:41:40.720Z,77.70
2022-12-23T05:44:08.043Z,73.10
2022-12-23T05:46:35.923Z,113.23
2022-12-23T05:49:03.326Z,111.43
2022-12-23T05:51:30.628Z,107.67
2022-12-23T05:53:58.358Z,109.13
2022-12-23T05:56:25.648Z,107.20
2022-12-23T05:58:52.980Z,105.73
2022-12-23T06:01:20.648Z,100.40
2022-12-23T06:03:48.494Z,93.97
2022-12-23T06:06:15.847Z,109.70
2022-12-23T06:08:43.078Z,136.87
2022-12-23T06:11:11.036Z,123.20
2022-12-23T06:13:38.562Z,137.80
2022-12-23T06:16:06.437Z,131.27
2022-12-23T06:18:34.062Z,108.13
2022-12-23T06:21:01.438Z,88.57
2022-12-23T06:23:28.808Z,70.33
2022-12-23T06:26:00.585Z,73.47
2022-12-23T06:28:29.425Z,77.27
2022-12-23T06:30:57.546Z,73.85
2022-12-23T06:33:25.614Z,74.37
2022-12-23T06:35:52.950Z,73.70
2022-12-23T06:38:20.609Z,69.93
2022-12-23T06:40:47.984Z,71.60
2022-12-23T06:43:15.368Z,70.30
2022-12-23T06:45:47.689Z,79.93
2022-12-23T06:48:15.547Z,112.90
2022-12-23T06:50:43.680Z,148.80
2022-12-23T06:53:10.983Z,132.67
2022-12-23T06:55:38.428Z,131.97
2022-12-23T06:58:06.559Z,141.70
2022-12-23T07:00:34.054Z,140.80
2022-12-23T07:03:01.568Z,143.67
2022-12-23T07:05:36.501Z,132.60
2022-12-23T07:08:04.801Z,136.37
2022-12-23T07:10:33.692Z,146.80
2022-12-23T07:13:01.776Z,147.32
2022-12-23T07:15:29.504Z,137.70
2022-12-23T07:17:57.231Z,133.57
2022-12-23T07:20:24.610Z,128.27
2022-12-23T07:22:55.176Z,141.37
2022-12-23T07:25:23.762Z,158.83
2022-12-23T07:27:55.538Z,139.65
2022-12-23T07:30:24.099Z,132.23
2022-12-23T07:32:51.960Z,131.27
2022-12-23T07:35:19.917Z,120.13
2022-12-23T07:37:52.927Z,117.63
2022-12-23T07:40:20.196Z,143.03
2022-12-23T07:42:54.815Z,153.53
2022-12-23T07:45:22.491Z,153.17
2022-12-23T07:47:57.661Z,145.03
2022-12-23T07:50:26.341Z,154.30
2022-12-23T07:52:54.807Z,138.95
2022-12-23T07:55:22.414Z,127.97
2022-12-23T07:57:51.056Z,130.00
2022-12-23T08:00:20.387Z,113.15
2022-12-23T08:02:48.638Z,106.53
2022-12-23T08:05:16.869Z,150.77
2022-12-23T08:07:49.927Z,192.20
2022-12-23T08:10:17.663Z,205.03
2022-12-23T08:12:46.677Z,156.33
2022-12-23T08:15:14.061Z,99.72
2022-12-23T08:17:41.745Z,49.53
2022-12-23T08:20:09.340Z,49.07
2022-12-23T08:22:36.631Z,40.73
2022-12-23T08:25:05.019Z,41.07
2022-12-23T08:27:32.591Z,45.53
2022-12-23T08:29:59.931Z,63.60
2022-12-23T08:32:27.877Z,89.60
2022-12-23T08:34:58.236Z,97.20
2022-12-23T08:37:25.732Z,32.90
2022-12-23T08:39:53.453Z,24.70
2022-12-23T08:42:20.758Z,23.23
2022-12-23T08:44:48.084Z,22.83
2022-12-23T08:47:16.341Z,26.33
2022-12-23T08:49:43.595Z,84.80
2022-12-23T08:52:10.910Z,42.60
2022-12-23T08:54:38.531Z,55.93
2022-12-23T08:57:05.772Z,96.50
2022-12-23T08:59:33.037Z,61.10
2022-12-23T09:02:02.330Z,60.43
2022-12-23T09:04:29.695Z,60.12
2022-12-23T09:06:56.928Z,52.10
2022-12-23T09:09:24.654Z,38.03
2022-12-23T09:11:51.901Z,32.87
2022-12-23T09:14:19.195Z,34.23
2022-12-23T09:16:46.868Z,30.07
2022-12-23T09:19:14.412Z,28.27
2022-12-23T09:21:41.665Z,33.97
2022-12-23T09:24:09.229Z,41.17
2022-12-23T09:26:36.588Z,38.47
2022-12-23T09:29:04.091Z,33.53
2022-12-23T09:31:36.609Z,34.50
2022-12-23T09:34:05.793Z,37.63
2022-12-23T09:36:33.481Z,71.55
2022-12-23T09:39:01.029Z,65.47
2022-12-23T09:41:40.678Z,53.83
2022-12-23T09:44:29.869Z,47.70
2022-12-23T09:47:00.892Z,57.03
2022-12-23T09:49:29.052Z,38.73
2022-12-23T09:52:04.272Z,36.00
2022-12-23T09:54:46.214Z,31.37
2022-12-23T09:57:49.498Z,34.20
2022-12-23T10:00:22.209Z,27.80
2022-12-23T10:03:08.885Z,22.17
2022-12-23T10:05:57.361Z,21.77
2022-12-23T10:08:34.606Z,18.37
2022-12-23T10:11:17.179Z,17.17
2022-12-23T10:13:54.019Z,17.97
2022-12-23T10:16:24.033Z,23.87
2022-12-23T10:19:04.433Z,25.03
2022-12-23T10:21:35.275Z,20.73
2022-12-23T10:24:11.238Z,29.40
2022-12-23T10:26:47.146Z,26.53
2022-12-23T10:29:20.693Z,18.63
2022-12-23T10:32:06.430Z,19.70
2022-12-23T10:34:43.213Z,21.90
2022-12-23T10:37:26.554Z,21.03
2022-12-23T10:40:03.322Z,29.90
2022-12-23T10:42:49.121Z,29.53
2022-12-23T10:45:26.048Z,24.60
2022-12-23T10:48:36.876Z,16.80
2022-12-23T10:51:10.819Z,23.57
2022-12-23T10:53:55.773Z,23.00
2022-12-23T10:56:24.713Z,24.30
2022-12-23T10:58:56.041Z,22.23
2022-12-23T11:01:27.445Z,19.47
2022-12-23T11:04:03.463Z,16.00
2022-12-23T11:06:37.633Z,14.77
2022-12-23T11:09:06.899Z,16.53
2022-12-23T11:11:59.505Z,15.80
2022-12-23T11:14:31.119Z,15.47
2022-12-23T11:16:58.992Z,16.97
2022-12-23T11:19:26.529Z,17.67
2022-12-23T11:21:59.736Z,13.00
2022-12-23T11:24:36.662Z,15.93
2022-12-23T11:27:14.638Z,20.80
2022-12-23T11:29:52.106Z,17.67
2022-12-23T11:32:25.314Z,18.37
2022-12-23T11:34:55.316Z,13.63
2022-12-23T11:37:28.185Z,18.87
2022-12-23T11:39:56.322Z,22.73
2022-12-23T11:42:29.469Z,23.60
2022-12-23T11:45:00.151Z,23.67
2022-12-23T11:47:41.176Z,24.47
2022-12-23T11:50:24.625Z,17.83
2022-12-23T11:52:55.561Z,20.13
2022-12-23T11:55:25.727Z,18.67
2022-12-23T11:57:53.395Z,23.87
2022-12-23T12:00:34.880Z,20.13
2022-12-23T12:03:05.096Z,18.80
2022-12-23T12:05:37.276Z,17.23
2022-12-23T12:08:15.025Z,26.33
2022-12-23T12:10:42.955Z,22.43
2022-12-23T12:13:49.310Z,23.77
2022-12-23T12:16:51.709Z,23.77
2022-12-23T12:19:28.922Z,23.07
2022-12-23T12:22:02.606Z,25.57
2022-12-23T12:24:38.690Z,27.57
2022-12-23T12:27:08.533Z,29.63
2022-12-23T12:29:45.998Z,31.10
2022-12-23T12:32:51.170Z,35.03
2022-12-23T12:35:27.576Z,34.07
2022-12-23T12:38:05.033Z,42.43
2022-12-23T12:40:43.623Z,41.17
2022-12-23T12:43:28.985Z,40.60
2022-12-23T12:46:10.504Z,37.83
2022-12-23T12:49:16.008Z,40.30
2022-12-23T12:52:08.305Z,36.30
2022-12-23T12:54:42.183Z,40.47
2022-12-23T12:57:15.964Z,35.57
2022-12-23T12:59:45.149Z,35.60
2022-12-23T13:02:46.377Z,47.50
2022-12-23T13:05:35.762Z,40.50
2022-12-23T13:08:19.524Z,38.30
2022-12-23T13:10:54.705Z,43.97
2022-12-23T13:13:42.704Z,42.73
2022-12-23T13:16:59.007Z,44.20
2022-12-23T13:19:51.020Z,39.27
2022-12-23T13:22:33.314Z,33.70
2022-12-23T13:25:13.517Z,36.33
2022-12-23T13:27:46.836Z,30.63
2022-12-23T13:30:18.049Z,34.53
2022-12-23T13:32:53.743Z,31.93
2022-12-23T13:35:42.852Z,38.27
2022-12-23T13:38:13.109Z,30.75
2022-12-23T13:41:18.594Z,30.33
2022-12-23T13:43:54.983Z,34.27
2022-12-23T13:46:48.518Z,33.40
2022-12-23T13:49:34.936Z,36.83
2022-12-23T13:52:17.910Z,39.20
2022-12-23T13:54:51.837Z,36.50
2022-12-23T13:57:28.661Z,40.97
2022-12-23T14:00:05.894Z,38.43
2022-12-23T14:02:43.623Z,43.37
2022-12-23T14:05:41.156Z,37.63
2022-12-23T14:08:31.768Z,43.30
2022-12-23T14:11:18.330Z,42.97
2022-12-23T14:13:51.871Z,38.97
2022-12-23T14:16:47.098Z,35.37
2022-12-23T14:19:34.499Z,41.07
2022-12-23T14:22:18.214Z,40.37
2022-12-23T14:25:24.052Z,77.80
2022-12-23T14:28:13.354Z,223.97
2022-12-23T14:30:45.991Z,89.15
2022-12-23T14:33:33.059Z,88.13
2022-12-23T14:36:25.242Z,86.53
2022-12-23T14:39:11.761Z,79.73
2022-12-23T14:41:53.101Z,72.47
2022-12-23T14:44:41.084Z,74.70
2022-12-23T14:47:40.497Z,64.00
2022-12-23T14:50:34.812Z,60.80
2022-12-23T14:53:05.320Z,58.07
2022-12-23T14:55:33.202Z,66.93
2022-12-23T14:58:17.786Z,107.30
2022-12-23T15:00:49.946Z,99.37
2022-12-23T15:03:19.030Z,108.90
2022-12-23T15:05:47.163Z,97.87
2022-12-23T15:08:33.854Z,103.43
2022-12-23T15:11:02.890Z,93.57
2022-12-23T15:13:32.676Z,119.57
2022-12-23T15:16:02.053Z,112.70
2022-12-23T15:18:30.337Z,105.73
2022-12-23T15:21:04.196Z,102.70
2022-12-23T15:23:33.440Z,119.77
2022-12-23T15:26:02.270Z,134.98
2022-12-23T15:28:41.804Z,137.93
2022-12-23T15:31:27.212Z,150.63
2022-12-23T15:34:05.333Z,171.30
2022-12-23T15:36:37.283Z,149.93
2022-12-23T15:39:10.934Z,174.90
2022-12-23T15:41:43.957Z,177.67
2022-12-23T15:44:15.953Z,165.20
2022-12-23T15:46:44.436Z,186.97
2022-12-23T15:49:12.695Z,167.50
2022-12-23T15:54:43.415Z,155.20
2022-12-23T15:57:20.387Z,169.73
2022-12-23T15:59:48.931Z,170.40
2022-12-23T16:02:58.927Z,155.43
2022-12-23T16:05:22.154Z,124.57
2022-12-23T16:07:49.524Z,137.43
2022-12-23T16:10:21.947Z,135.93
2022-12-23T16:12:51.688Z,158.83
2022-12-23T16:15:28.645Z,121.80
2022-12-23T16:18:14.059Z,144.90
2022-12-23T16:21:03.725Z,108.17
2022-12-23T16:26:02.125Z,284.33
2022-12-23T16:28:42.486Z,170.97
2022-12-23T16:31:11.602Z,181.10
2022-12-23T16:33:42.210Z,189.00
2022-12-23T16:36:25.239Z,151.30
2022-12-23T16:39:23.196Z,121.60
2022-12-23T16:41:51.044Z,86.90
2022-12-23T16:44:18.433Z,60.47
2022-12-23T16:46:49.019Z,75.30
2022-12-23T16:49:21.484Z,85.13
2022-12-23T16:51:49.653Z,175.40
2022-12-23T16:54:20.147Z,231.05
2022-12-23T16:56:48.236Z,179.17
2022-12-23T16:59:16.634Z,172.67
2022-12-23T17:01:49.200Z,150.05
2022-12-23T17:04:16.611Z,129.33
2022-12-23T17:06:46.748Z,156.27
2022-12-23T17:09:14.226Z,160.37
2022-12-23T17:11:48.760Z,129.60
2022-12-23T17:14:25.438Z,122.73
2022-12-23T17:16:53.373Z,194.03
2022-12-23T17:19:27.986Z,191.50
2022-12-23T17:22:01.142Z,155.27
2022-12-23T17:24:29.059Z,145.70
2022-12-23T17:26:59.472Z,114.47
2022-12-23T17:29:27.188Z,84.47
2022-12-23T17:31:55.305Z,84.33
2022-12-23T17:34:24.686Z,86.23
2022-12-23T17:36:52.899Z,123.43
2022-12-23T17:39:21.974Z,98.45
2022-12-23T17:41:49.881Z,208.43
2022-12-23T17:44:18.355Z,178.17
2022-12-23T17:46:46.915Z,150.95
2022-12-23T17:49:14.430Z,111.77
2022-12-23T17:51:42.640Z,98.97
2022-12-23T17:54:24.836Z,82.28
2022-12-23T17:56:52.926Z,82.97
2022-12-23T17:59:21.671Z,102.43
2022-12-23T18:01:49.379Z,336.17
2022-12-23T18:04:17.231Z,189.77
2022-12-23T18:06:44.603Z,206.57
2022-12-23T18:09:11.971Z,132.30
2022-12-23T18:11:44.373Z,125.50
2022-12-23T18:14:18.221Z,105.43
2022-12-23T18:16:46.582Z,103.27
2022-12-23T18:19:19.510Z,115.43
2022-12-23T18:21:47.718Z,228.17
2022-12-23T18:24:15.701Z,153.10
2022-12-23T18:26:43.323Z,139.47
2022-12-23T18:29:11.035Z,170.90
2022-12-23T18:31:50.518Z,100.43
2022-12-23T18:34:19.841Z,103.53
2022-12-23T18:36:48.523Z,99.97
2022-12-23T18:39:16.173Z,108.05
2022-12-23T18:41:43.857Z,90.57
2022-12-23T18:44:21.598Z,100.37
2022-12-23T18:46:49.659Z,91.70
2022-12-23T18:49:17.153Z,70.93
2022-12-23T18:51:45.383Z,81.67
2022-12-23T18:54:14.633Z,86.70
2022-12-23T18:56:42.373Z,84.57
2022-12-23T18:59:21.351Z,75.00
2022-12-23T19:01:51.892Z,56.23
2022-12-23T19:04:19.504Z,52.00
2022-12-23T19:06:46.844Z,65.60
2022-12-23T19:09:20.941Z,82.60
2022-12-23T19:11:51.312Z,80.40
2022-12-23T19:14:20.631Z,77.67
2022-12-23T19:16:51.943Z,64.50
2022-12-23T19:19:21.933Z,69.60
2022-12-23T19:21:49.549Z,212.07
2022-12-23T19:24:17.300Z,217.37
2022-12-23T19:26:45.333Z,156.20
2022-12-23T19:29:12.787Z,125.00
2022-12-23T19:31:40.293Z,112.10
2022-12-23T19:34:12.900Z,101.20
2022-12-23T19:36:43.358Z,92.33
2022-12-23T19:39:17.339Z,97.07
2022-12-23T19:41:45.391Z,96.50
2022-12-23T19:44:13.276Z,89.87
2022-12-23T19:46:40.982Z,121.10
2022-12-23T19:49:09.944Z,228.00
2022-12-23T19:51:39.293Z,181.03
2022-12-23T19:54:06.679Z,166.47
2022-12-23T19:56:35.576Z,195.10
2022-12-23T19:59:03.648Z,177.70
2022-12-23T20:01:31.259Z,182.83
2022-12-23T20:03:59.050Z,266.13
2022-12-23T20:06:33.789Z,272.37
2022-12-23T20:09:04.526Z,173.03
2022-12-23T20:11:37.855Z,147.53
2022-12-23T20:14:06.500Z,133.57
2022-12-23T20:16:35.118Z,135.87
2022-12-23T20:19:02.841Z,409.70
2022-12-23T20:21:30.952Z,330.17
2022-12-23T20:23:58.374Z,209.80
2022-12-23T20:26:27.359Z,323.13
2022-12-23T20:31:30.968Z,142.53
2022-12-23T20:34:00.529Z,200.97
2022-12-23T20:36:30.781Z,126.43
2022-12-23T20:38:58.889Z,207.00
2022-12-23T20:41:28.360Z,133.55
2022-12-23T20:44:32.513Z,79.32
2022-12-23T20:46:44.281Z,67.72
2022-12-23T20:49:11.712Z,55.87
2022-12-23T20:51:39.067Z,45.63
2022-12-23T20:54:06.809Z,55.03
2022-12-23T20:56:34.116Z,56.90
2022-12-23T20:59:04.236Z,72.07
2022-12-23T21:01:38.504Z,94.97
2022-12-23T21:04:08.830Z,129.27
2022-12-23T21:06:36.696Z,165.20
2022-12-23T21:09:06.020Z,172.97
2022-12-23T21:14:07.066Z,101.10
2022-12-23T21:16:37.381Z,89.87
2022-12-23T21:19:07.575Z,93.03
2022-12-23T21:21:35.043Z,94.13
2022-12-23T21:24:05.078Z,98.80
2022-12-23T21:26:34.840Z,98.33
2022-12-23T21:29:04.622Z,89.07
2022-12-23T21:31:35.064Z,92.03
2022-12-23T21:34:03.312Z,105.53
2022-12-23T21:36:34.300Z,90.60
2022-12-23T21:39:02.273Z,79.87
2022-12-23T21:41:35.368Z,157.93
2022-12-23T21:44:02.828Z,153.23
2022-12-23T21:46:31.117Z,162.10
2022-12-23T21:48:59.733Z,117.23
2022-12-23T21:51:36.933Z,145.27
2022-12-23T21:54:09.334Z,122.37
2022-12-23T21:56:37.218Z,76.47
2022-12-23T21:59:12.465Z,201.23
2022-12-23T22:01:41.246Z,138.10
2022-12-23T22:04:09.147Z,192.98
2022-12-23T22:06:39.353Z,151.07
2022-12-23T22:09:08.458Z,120.33
2022-12-23T22:14:07.197Z,76.45
2022-12-23T22:16:35.954Z,108.37
2022-12-23T22:19:05.926Z,183.07
2022-12-23T22:21:34.361Z,199.23
2022-12-23T22:24:02.379Z,198.38
2022-12-23T22:26:32.546Z,176.20
2022-12-23T22:29:03.067Z,186.37
2022-12-23T22:31:49.082Z,222.67
2022-12-23T22:34:19.488Z,205.73
2022-12-23T22:36:47.933Z,212.23
2022-12-23T22:39:20.752Z,179.45
2022-12-23T22:41:52.550Z,183.30
2022-12-23T22:44:20.735Z,231.47
2022-12-23T22:46:48.965Z,222.75
2022-12-23T22:49:17.047Z,250.60
2022-12-23T22:51:44.690Z,243.10
2022-12-23T22:54:12.444Z,197.83
2022-12-23T22:56:39.820Z,217.63
2022-12-23T22:59:07.024Z,217.23
2022-12-23T23:01:36.578Z,196.10
2022-12-23T23:06:34.473Z,221.13
2022-12-23T23:09:02.140Z,146.70
2022-12-23T23:11:30.830Z,144.07
2022-12-23T23:13:58.204Z,134.43
2022-12-23T23:16:26.386Z,133.60
2022-12-23T23:18:54.270Z,130.13
2022-12-23T23:21:22.218Z,134.10
2022-12-23T23:23:50.239Z,125.43
2022-12-23T23:26:19.000Z,131.10
2022-12-23T23:28:46.802Z,108.07
2022-12-23T23:31:41.060Z,80.15
2022-12-23T23:34:02.199Z,76.87
2022-12-23T23:36:29.961Z,114.30
2022-12-23T23:38:57.359Z,139.60
2022-12-23T23:41:24.842Z,114.03
2022-12-23T23:43:52.900Z,159.30
2022-12-23T23:46:20.389Z,156.43
2022-12-23T23:48:47.799Z,199.13
2022-12-23T23:51:15.663Z,212.30
2022-12-23T23:53:43.070Z,224.47
2022-12-23T23:56:10.596Z,175.97
2022-12-23T23:58:38.424Z,193.37
